createdAt,value
2022-08-22T00:01:10.832Z,3.38
2022-08-22T00:02:58.169Z,3.97
2022-08-22T00:03:02.619Z,5.43
2022-08-22T00:04:13.996Z,3.30
2022-08-22T00:06:50.914Z,2.88
2022-08-22T00:09:25.686Z,2.90
2022-08-22T00:12:17.389Z,3.10
2022-08-22T00:15:05.053Z,3.70
2022-08-22T00:17:37.664Z,3.10
2022-08-22T00:20:33.193Z,4.15
2022-08-22T00:23:29.050Z,3.40
2022-08-22T00:26:17.360Z,3.45
2022-08-22T00:29:12.903Z,3.30
2022-08-22T00:32:05.408Z,3.53
2022-08-22T00:34:56.184Z,3.65
2022-08-22T00:37:43.237Z,3.80
2022-08-22T00:40:42.277Z,3.33
2022-08-22T00:43:12.185Z,3.30
2022-08-22T00:45:59.945Z,2.88
2022-08-22T00:49:00.416Z,3.63
2022-08-22T00:52:01.520Z,3.08
2022-08-22T00:57:53.231Z,3.10
2022-08-22T01:00:27.699Z,2.75
2022-08-22T01:03:28.430Z,3.90
2022-08-22T01:06:16.267Z,3.25
2022-08-22T01:09:08.863Z,3.03
2022-08-22T01:12:02.646Z,3.47
2022-08-22T01:14:46.340Z,3.65
2022-08-22T01:17:16.264Z,3.92
2022-08-22T01:20:03.657Z,3.33
2022-08-22T01:23:04.673Z,3.58
2022-08-22T01:26:10.015Z,4.20
2022-08-22T01:31:39.038Z,3.58
2022-08-22T01:34:24.031Z,3.60
2022-08-22T01:37:17.709Z,3.13
2022-08-22T01:40:24.686Z,3.33
2022-08-22T01:43:59.116Z,3.35
2022-08-22T01:46:48.851Z,4.18
2022-08-22T01:49:28.256Z,3.25
2022-08-22T01:52:06.987Z,3.67
2022-08-22T01:54:44.064Z,3.67
2022-08-22T01:57:14.979Z,6.05
2022-08-22T01:59:51.417Z,5.65
2022-08-22T02:02:39.084Z,6.22
2022-08-22T02:05:23.833Z,7.25
2022-08-22T02:08:14.887Z,11.95
2022-08-22T02:11:03.248Z,6.15
2022-08-22T02:13:57.819Z,6.07
2022-08-22T02:16:55.087Z,5.05
2022-08-22T02:19:30.934Z,3.75
2022-08-22T02:22:21.651Z,3.72
2022-08-22T02:25:10.927Z,4.13
2022-08-22T02:27:53.256Z,3.85
2022-08-22T02:30:43.999Z,3.95
2022-08-22T02:33:48.850Z,4.60
2022-08-22T02:36:47.854Z,5.63
2022-08-22T02:39:41.954Z,6.15
2022-08-22T02:42:25.088Z,4.95
2022-08-22T02:45:13.874Z,4.50
2022-08-22T02:47:57.108Z,4.78
2022-08-22T02:50:30.879Z,5.82
2022-08-22T02:53:37.080Z,4.38
2022-08-22T02:56:33.070Z,4.70
2022-08-22T02:59:25.647Z,4.78
2022-08-22T03:01:57.285Z,6.03
2022-08-22T03:04:33.055Z,5.28
2022-08-22T03:07:22.589Z,12.48
2022-08-22T03:10:24.478Z,6.00
2022-08-22T03:13:20.044Z,7.57
2022-08-22T03:15:58.356Z,6.28
2022-08-22T03:19:01.818Z,7.25
2022-08-22T03:21:47.093Z,5.95
2022-08-22T03:24:17.153Z,5.63
2022-08-22T03:26:52.611Z,4.57
2022-08-22T03:29:32.164Z,5.03
2022-08-22T03:32:22.505Z,5.22
2022-08-22T03:35:11.937Z,4.20
2022-08-22T03:37:45.475Z,4.20
2022-08-22T03:40:22.183Z,4.78
2022-08-22T03:42:54.717Z,5.20
2022-08-22T03:45:42.782Z,5.18
2022-08-22T03:48:44.345Z,4.63
2022-08-22T03:51:43.629Z,4.93
2022-08-22T03:54:29.254Z,5.55
2022-08-22T03:57:37.227Z,4.95
2022-08-22T04:00:38.774Z,4.65
2022-08-22T04:03:29.014Z,4.97
2022-08-22T04:06:12.955Z,5.22
2022-08-22T04:08:44.704Z,4.85
2022-08-22T04:11:37.812Z,4.25
2022-08-22T04:14:45.871Z,4.72
2022-08-22T04:17:43.012Z,5.03
2022-08-22T04:20:17.041Z,5.03
2022-08-22T04:23:23.755Z,4.40
2022-08-22T04:26:12.070Z,3.83
2022-08-22T04:31:31.176Z,4.25
2022-08-22T04:34:30.955Z,3.85
2022-08-22T04:37:17.254Z,3.80
2022-08-22T04:39:54.989Z,4.07
2022-08-22T04:42:40.692Z,4.63
2022-08-22T04:45:35.240Z,4.80
2022-08-22T04:50:49.367Z,4.43
2022-08-22T04:53:24.553Z,4.00
2022-08-22T04:56:34.140Z,4.68
2022-08-22T04:59:15.219Z,4.68
2022-08-22T05:01:48.978Z,4.80
2022-08-22T05:04:27.290Z,4.18
2022-08-22T05:07:16.921Z,5.07
2022-08-22T05:09:57.524Z,4.28
2022-08-22T05:12:35.326Z,3.97
2022-08-22T05:15:19.019Z,4.75
2022-08-22T05:17:56.440Z,4.32
2022-08-22T05:20:29.083Z,4.30
2022-08-22T05:23:05.934Z,4.95
2022-08-22T05:25:39.395Z,4.70
2022-08-22T05:28:32.414Z,4.88
2022-08-22T05:31:07.224Z,4.30
2022-08-22T05:33:50.117Z,5.22
2022-08-22T05:36:29.344Z,3.95
2022-08-22T05:39:08.217Z,3.22
2022-08-22T05:41:40.085Z,3.75
2022-08-22T05:44:26.785Z,4.32
2022-08-22T05:47:29.909Z,4.05
2022-08-22T05:50:06.614Z,5.35
2022-08-22T05:53:13.427Z,4.60
2022-08-22T05:55:58.138Z,4.07
2022-08-22T05:58:52.296Z,4.10
2022-08-22T06:01:37.817Z,4.28
2022-08-22T06:04:41.365Z,5.30
2022-08-22T06:07:35.634Z,4.28
2022-08-22T06:10:32.991Z,4.07
2022-08-22T06:13:12.973Z,4.25
2022-08-22T06:15:53.857Z,4.95
2022-08-22T06:18:28.342Z,4.60
2022-08-22T06:21:04.001Z,4.85
2022-08-22T06:23:57.604Z,4.57
2022-08-22T06:26:33.031Z,4.97
2022-08-22T06:29:05.433Z,4.88
2022-08-22T06:31:44.457Z,4.40
2022-08-22T06:34:25.655Z,4.03
2022-08-22T06:36:59.099Z,3.88
2022-08-22T06:39:42.391Z,3.80
2022-08-22T06:42:31.885Z,4.60
2022-08-22T06:45:08.512Z,3.63
2022-08-22T06:47:43.720Z,4.68
2022-08-22T06:50:32.084Z,3.78
2022-08-22T06:53:19.593Z,3.70
2022-08-22T06:56:04.441Z,3.58
2022-08-22T06:58:50.272Z,4.85
2022-08-22T07:01:24.157Z,4.85
2022-08-22T07:04:04.480Z,4.85
2022-08-22T07:06:38.608Z,4.93
2022-08-22T07:09:18.200Z,4.72
2022-08-22T07:11:50.335Z,5.10
2022-08-22T07:14:46.093Z,4.25
2022-08-22T07:17:37.853Z,4.95
2022-08-22T07:20:33.084Z,5.13
2022-08-22T07:23:14.551Z,4.30
2022-08-22T07:26:13.273Z,4.35
2022-08-22T07:29:10.722Z,5.13
2022-08-22T07:31:50.477Z,5.25
2022-08-22T07:34:41.729Z,4.70
2022-08-22T07:37:28.134Z,5.78
2022-08-22T07:40:12.215Z,4.25
2022-08-22T07:42:53.990Z,3.53
2022-08-22T07:45:54.925Z,4.22
2022-08-22T07:48:59.273Z,5.38
2022-08-22T07:51:41.916Z,4.75
2022-08-22T07:54:15.925Z,5.35
2022-08-22T07:56:56.247Z,4.53
2022-08-22T07:59:29.325Z,6.20
2022-08-22T08:02:01.527Z,4.80
2022-08-22T08:04:39.510Z,5.93
2022-08-22T08:07:13.581Z,6.35
2022-08-22T08:09:51.582Z,6.18
2022-08-22T08:12:27.830Z,7.05
2022-08-22T08:14:58.772Z,9.52
2022-08-22T08:17:32.399Z,9.45
2022-08-22T08:20:10.617Z,10.80
2022-08-22T08:22:44.438Z,11.88
2022-08-22T08:25:19.229Z,7.88
2022-08-22T08:28:09.848Z,5.68
2022-08-22T08:30:58.932Z,7.50
2022-08-22T08:33:33.366Z,4.72
2022-08-22T08:36:12.125Z,6.85
2022-08-22T08:38:50.926Z,5.72
2022-08-22T08:41:45.264Z,6.00
2022-08-22T08:44:41.096Z,5.68
2022-08-22T08:47:41.808Z,5.80
2022-08-22T08:51:02.183Z,6.43
2022-08-22T08:54:04.522Z,6.07
2022-08-22T08:56:40.256Z,5.38
2022-08-22T08:59:35.870Z,5.30
2022-08-22T09:02:48.749Z,6.25
2022-08-22T09:05:46.708Z,7.22
2022-08-22T09:08:33.175Z,7.63
2022-08-22T09:11:48.458Z,6.97
2022-08-22T09:14:44.329Z,6.05
2022-08-22T09:17:48.001Z,4.95
2022-08-22T09:20:49.632Z,6.57
2022-08-22T09:23:44.323Z,5.72
2022-08-22T09:26:22.850Z,6.63
2022-08-22T09:29:01.642Z,7.38
2022-08-22T09:31:52.148Z,6.65
2022-08-22T09:35:08.528Z,7.22
2022-08-22T09:37:47.591Z,6.93
2022-08-22T09:40:30.790Z,6.72
2022-08-22T09:43:21.243Z,7.90
2022-08-22T09:46:08.448Z,6.03
2022-08-22T09:49:05.637Z,11.35
2022-08-22T09:52:02.652Z,6.80
2022-08-22T09:54:49.382Z,7.57
2022-08-22T09:57:22.702Z,7.38
2022-08-22T10:00:11.584Z,7.78
2022-08-22T10:02:54.059Z,7.75
2022-08-22T10:05:47.660Z,8.18
2022-08-22T10:08:32.286Z,9.40
2022-08-22T10:11:43.338Z,10.25
2022-08-22T10:14:33.348Z,7.65
2022-08-22T10:17:15.769Z,6.15
2022-08-22T10:20:15.080Z,7.70
2022-08-22T10:23:21.248Z,5.78
2022-08-22T10:25:59.424Z,5.35
2022-08-22T10:28:48.088Z,6.57
2022-08-22T10:31:30.148Z,5.50
2022-08-22T10:34:08.340Z,5.90
2022-08-22T10:37:01.383Z,6.57
2022-08-22T10:39:44.891Z,5.35
2022-08-22T10:42:27.966Z,5.80
2022-08-22T10:45:16.536Z,5.75
2022-08-22T10:48:00.723Z,6.60
2022-08-22T10:50:40.515Z,5.53
2022-08-22T10:53:34.962Z,6.10
2022-08-22T10:56:14.481Z,5.60
2022-08-22T10:59:02.491Z,5.90
2022-08-22T11:01:42.377Z,7.40
2022-08-22T11:04:42.986Z,6.53
2022-08-22T11:07:48.768Z,5.72
2022-08-22T11:10:56.722Z,6.40
2022-08-22T11:13:32.234Z,6.90
2022-08-22T11:16:20.908Z,8.30
2022-08-22T11:19:44.786Z,6.63
2022-08-22T11:22:23.197Z,7.22
2022-08-22T11:25:35.837Z,7.57
2022-08-22T11:31:52.422Z,6.13
2022-08-22T11:34:59.900Z,7.82
2022-08-22T11:38:12.294Z,6.47
2022-08-22T11:41:01.712Z,7.50
2022-08-22T11:43:44.508Z,7.82
2022-08-22T11:46:31.194Z,7.68
2022-08-22T11:49:19.373Z,6.65
2022-08-22T11:52:15.507Z,7.63
2022-08-22T11:55:08.297Z,6.43
2022-08-22T11:57:45.058Z,7.80
2022-08-22T12:00:33.546Z,6.80
2022-08-22T12:03:29.539Z,4.38
2022-08-22T12:06:15.258Z,8.60
2022-08-22T12:08:52.078Z,6.88
2022-08-22T12:11:24.996Z,7.60
2022-08-22T12:14:06.297Z,7.75
2022-08-22T12:16:48.224Z,6.15
2022-08-22T12:22:49.896Z,7.05
2022-08-22T12:25:35.105Z,8.10
2022-08-22T12:28:16.928Z,4.70
2022-08-22T12:31:06.398Z,4.72
2022-08-22T12:33:50.665Z,5.53
2022-08-22T12:36:51.906Z,6.32
2022-08-22T12:39:49.408Z,6.03
2022-08-22T12:42:27.021Z,5.82
2022-08-22T12:45:20.410Z,6.05
2022-08-22T12:48:01.566Z,13.70
2022-08-22T12:51:17.257Z,6.22
2022-08-22T12:54:27.590Z,8.88
2022-08-22T12:56:59.995Z,8.55
2022-08-22T12:59:40.579Z,8.00
2022-08-22T13:02:21.810Z,7.70
2022-08-22T13:05:22.089Z,8.38
2022-08-22T13:08:02.362Z,7.57
2022-08-22T13:10:53.590Z,7.45
2022-08-22T13:13:38.869Z,8.77
2022-08-22T13:16:16.703Z,8.70
2022-08-22T13:18:59.101Z,8.38
2022-08-22T13:21:34.864Z,8.27
2022-08-22T13:24:22.693Z,8.02
2022-08-22T13:27:16.381Z,7.20
2022-08-22T13:29:52.997Z,7.00
2022-08-22T13:32:30.045Z,7.45
2022-08-22T13:35:03.494Z,7.53
2022-08-22T13:37:39.568Z,7.00
2022-08-22T13:40:15.098Z,6.57
2022-08-22T13:42:54.241Z,8.13
2022-08-22T13:45:28.373Z,7.40
2022-08-22T13:48:03.987Z,6.75
2022-08-22T13:51:05.245Z,5.97
2022-08-22T13:54:01.848Z,7.18
2022-08-22T13:56:44.044Z,6.20
2022-08-22T13:59:50.130Z,6.10
2022-08-22T14:02:35.023Z,5.93
2022-08-22T14:05:12.654Z,6.10
2022-08-22T14:08:25.811Z,5.93
2022-08-22T14:11:14.800Z,6.55
2022-08-22T14:13:50.680Z,6.40
2022-08-22T14:16:24.400Z,6.10
2022-08-22T14:19:00.176Z,6.32
2022-08-22T14:21:54.609Z,7.32
2022-08-22T14:24:47.263Z,6.22
2022-08-22T14:27:36.960Z,6.20
2022-08-22T14:30:20.595Z,6.57
2022-08-22T14:33:29.051Z,6.72
2022-08-22T14:36:05.899Z,6.53
2022-08-22T14:38:51.828Z,6.63
2022-08-22T14:41:56.573Z,6.65
2022-08-22T14:45:10.314Z,6.07
2022-08-22T14:47:55.141Z,6.85
2022-08-22T14:50:42.358Z,7.20
2022-08-22T14:53:27.864Z,6.90
2022-08-22T14:56:19.250Z,6.10
2022-08-22T14:58:59.366Z,6.63
2022-08-22T15:01:33.832Z,7.10
2022-08-22T15:04:19.290Z,9.05
2022-08-22T15:07:00.113Z,6.40
2022-08-22T15:09:41.909Z,6.93
2022-08-22T15:12:29.239Z,6.60
2022-08-22T15:15:02.855Z,8.38
2022-08-22T15:17:44.366Z,6.93
2022-08-22T15:20:28.193Z,6.72
2022-08-22T15:23:10.062Z,6.45
2022-08-22T15:25:47.077Z,6.97
2022-08-22T15:28:21.422Z,6.65
2022-08-22T15:31:03.556Z,6.45
2022-08-22T15:33:43.351Z,6.15
2022-08-22T15:36:19.000Z,7.40
2022-08-22T15:38:52.772Z,6.40
2022-08-22T15:41:36.243Z,6.75
2022-08-22T15:44:14.970Z,7.30
2022-08-22T15:47:34.966Z,7.68
2022-08-22T15:50:15.401Z,6.35
2022-08-22T15:53:12.778Z,7.43
2022-08-22T15:56:15.401Z,6.25
2022-08-22T15:58:49.808Z,6.43
2022-08-22T16:01:20.615Z,6.72
2022-08-22T16:04:01.779Z,7.00
2022-08-22T16:06:54.377Z,6.30
2022-08-22T16:09:40.728Z,6.50
2022-08-22T16:12:32.320Z,6.88
2022-08-22T16:15:06.757Z,7.25
2022-08-22T16:17:44.180Z,6.78
2022-08-22T16:20:19.713Z,7.63
2022-08-22T16:22:59.483Z,7.22
2022-08-22T16:25:48.689Z,7.32
2022-08-22T16:28:57.430Z,6.53
2022-08-22T16:31:44.110Z,6.70
2022-08-22T16:34:27.057Z,6.88
2022-08-22T16:37:15.874Z,6.72
2022-08-22T16:40:14.446Z,6.90
2022-08-22T16:42:50.603Z,6.95
2022-08-22T16:45:26.616Z,6.47
2022-08-22T16:48:00.460Z,7.18
2022-08-22T16:50:36.977Z,6.97
2022-08-22T16:53:31.256Z,6.07
2022-08-22T16:56:18.520Z,6.57
2022-08-22T16:59:09.939Z,7.20
2022-08-22T17:02:09.494Z,5.78
2022-08-22T17:05:11.539Z,6.38
2022-08-22T17:08:05.325Z,5.82
2022-08-22T17:11:00.025Z,6.65
2022-08-22T17:13:45.386Z,5.95
2022-08-22T17:16:57.187Z,5.88
2022-08-22T17:20:04.600Z,5.65
2022-08-22T17:22:47.667Z,5.22
2022-08-22T17:25:49.811Z,6.93
2022-08-22T17:28:56.748Z,5.90
2022-08-22T17:31:44.833Z,5.63
2022-08-22T17:37:09.447Z,5.85
2022-08-22T17:39:55.909Z,5.20
2022-08-22T17:42:44.337Z,4.82
2022-08-22T17:45:52.255Z,5.55
2022-08-22T17:48:43.291Z,5.18
2022-08-22T17:51:33.408Z,5.40
2022-08-22T17:54:44.545Z,4.70
2022-08-22T17:57:38.473Z,4.45
2022-08-22T18:00:19.878Z,5.00
2022-08-22T18:02:57.923Z,4.43
2022-08-22T18:05:47.244Z,4.43
2022-08-22T18:11:43.393Z,5.55
2022-08-22T18:14:31.796Z,4.50
2022-08-22T18:17:02.313Z,4.80
2022-08-22T18:20:29.794Z,4.60
2022-08-22T18:23:21.500Z,5.13
2022-08-22T18:26:17.432Z,5.10
2022-08-22T18:29:09.733Z,4.68
2022-08-22T18:32:02.621Z,4.60
2022-08-22T18:34:43.085Z,4.80
2022-08-22T18:37:36.788Z,4.82
2022-08-22T18:42:57.333Z,5.20
2022-08-22T18:45:45.896Z,6.30
2022-08-22T18:48:29.138Z,4.72
2022-08-22T18:51:24.476Z,4.20
2022-08-22T18:54:03.130Z,4.45
2022-08-22T18:56:35.301Z,4.47
2022-08-22T18:59:28.405Z,5.00
2022-08-22T19:02:19.760Z,4.88
2022-08-22T19:05:18.789Z,4.53
2022-08-22T19:07:59.838Z,4.32
2022-08-22T19:10:41.828Z,4.30
2022-08-22T19:13:29.915Z,4.80
2022-08-22T19:19:04.187Z,5.40
2022-08-22T19:21:56.194Z,5.10
2022-08-22T19:24:29.005Z,5.70
2022-08-22T19:27:20.115Z,5.85
2022-08-22T19:29:50.173Z,5.68
2022-08-22T19:32:44.978Z,5.70
2022-08-22T19:35:28.292Z,4.85
2022-08-22T19:38:01.522Z,6.03
2022-08-22T19:40:46.796Z,4.85
2022-08-22T19:43:43.104Z,6.85
2022-08-22T19:46:15.972Z,6.15
2022-08-22T19:48:53.464Z,5.85
2022-08-22T19:51:24.651Z,6.03
2022-08-22T19:54:16.736Z,6.63
2022-08-22T19:57:10.100Z,6.35
2022-08-22T20:00:00.561Z,6.72
2022-08-22T20:02:53.699Z,5.40
2022-08-22T20:05:58.705Z,5.93
2022-08-22T20:08:49.092Z,6.07
2022-08-22T20:11:39.581Z,6.65
2022-08-22T20:14:39.094Z,5.88
2022-08-22T20:17:13.995Z,6.03
2022-08-22T20:20:19.546Z,5.65
2022-08-22T20:23:02.339Z,5.88
2022-08-22T20:25:45.880Z,6.00
2022-08-22T20:28:47.435Z,6.30
2022-08-22T20:31:26.367Z,5.75
2022-08-22T20:34:19.268Z,5.88
2022-08-22T20:36:59.764Z,6.30
2022-08-22T20:39:58.798Z,6.10
2022-08-22T20:42:34.084Z,6.97
2022-08-22T20:45:12.394Z,7.05
2022-08-22T20:47:49.459Z,6.50
2022-08-22T20:50:25.432Z,8.02
2022-08-22T20:53:13.931Z,6.65
2022-08-22T20:55:58.107Z,6.60
2022-08-22T20:58:37.705Z,6.82
2022-08-22T21:01:12.443Z,6.15
2022-08-22T21:03:45.153Z,6.35
2022-08-22T21:06:36.304Z,6.93
2022-08-22T21:09:37.533Z,6.68
2022-08-22T21:12:11.404Z,7.03
2022-08-22T21:14:47.656Z,6.85
2022-08-22T21:19:59.056Z,6.85
2022-08-22T21:22:34.781Z,6.15
2022-08-22T21:27:36.639Z,7.03
2022-08-22T21:30:09.806Z,6.78
2022-08-22T21:32:51.167Z,6.57
2022-08-22T21:35:33.684Z,6.20
2022-08-22T21:38:04.109Z,7.80
2022-08-22T21:40:37.421Z,7.30
2022-08-22T21:43:29.068Z,6.68
2022-08-22T21:45:59.537Z,6.85
2022-08-22T21:48:47.645Z,7.70
2022-08-22T21:51:33.093Z,6.20
2022-08-22T21:54:31.305Z,7.30
2022-08-22T21:57:33.522Z,6.82
2022-08-22T22:00:04.272Z,6.53
2022-08-22T22:02:44.008Z,7.10
2022-08-22T22:05:17.270Z,8.00
2022-08-22T22:07:48.889Z,7.53
2022-08-22T22:10:23.720Z,7.40
2022-08-22T22:12:56.716Z,7.25
2022-08-22T22:15:29.918Z,7.63
2022-08-22T22:18:00.995Z,7.05
2022-08-22T22:20:32.168Z,7.57
2022-08-22T22:23:02.613Z,7.22
2022-08-22T22:25:40.825Z,7.93
2022-08-22T22:28:17.275Z,7.07
2022-08-22T22:30:51.608Z,7.35
2022-08-22T22:33:28.145Z,7.45
2022-08-22T22:36:00.752Z,7.88
2022-08-22T22:38:30.930Z,7.90
2022-08-22T22:43:30.581Z,8.68
2022-08-22T22:46:02.298Z,8.20
2022-08-22T22:51:12.700Z,8.38
2022-08-22T22:53:43.911Z,9.77
2022-08-22T22:56:22.570Z,7.40
2022-08-22T22:59:01.182Z,7.45
2022-08-22T23:02:02.432Z,7.47
2022-08-22T23:04:34.197Z,6.95
2022-08-22T23:07:07.338Z,7.20
2022-08-22T23:09:45.082Z,8.45
2022-08-22T23:12:16.514Z,7.07
2022-08-22T23:14:47.095Z,6.18
2022-08-22T23:17:17.344Z,7.95
2022-08-22T23:19:47.703Z,7.88
2022-08-22T23:22:17.647Z,7.65
2022-08-22T23:24:47.524Z,6.38
2022-08-22T23:27:17.339Z,8.25
2022-08-22T23:32:16.817Z,7.00
2022-08-22T23:34:49.892Z,6.40
2022-08-22T23:37:23.488Z,7.00
2022-08-22T23:39:53.644Z,6.32
2022-08-22T23:42:23.564Z,6.47
2022-08-22T23:44:53.422Z,6.60
2022-08-22T23:47:23.198Z,6.82
2022-08-22T23:52:22.171Z,6.10
2022-08-22T23:54:55.749Z,7.28
2022-08-22T23:57:27.691Z,5.30
2022-08-22T23:59:59.867Z,8.80
